KIAG/IAG METAR and TAF weather

Enter ICAO airport designator
Station Type Date Time Source
KIAG METAR 2021/09/20 04:53 UTC NOAA

KIAG 200453Z AUTO 10003KT 10SM CLR 13/10 A3020 RMK AO2 SLP226 T01330100 402440117 $


Station Type Date Time Source
KIAG Decoded METAR 2021/09/20 04:53 UTC NOAA

NIAGARA FALLS INTERNATIONAL AIRPORT, NY, United States (KIAG) 43-07N 078-56W 182M
Sep 20, 2021 - 12:53 AM EDT / 2021.09.20 0453 UTC
Wind: from the E (100 degrees) at 3 MPH (3 KT):0
Visibility: 10 mile(s):0
Sky conditions: clear
Temperature: 55.9 F (13.3 C)
Dew Point: 50.0 F (10.0 C)
Relative Humidity: 80%
Pressure (altimeter): 30.2 in. Hg (1022 hPa)
ob: KIAG 200453Z AUTO 10003KT 10SM CLR 13/10 A3020 RMK AO2 SLP226 T01330100 402440117
cycle: 5

Station Type Date Time Source
KIAG TAF 2021/09/20 02:09 UTC NOAA

TAF
AMD KIAG 200207Z 2002/2024 10006KT P6SM SKC
FM201400 17010G16KT P6SM SCT040

Example: see airport list